createdAt,value
2018-09-27T00:01:13.802Z,96327.80
2018-09-27T00:03:42.620Z,96331.03
2018-09-27T00:06:11.954Z,96321.44
2018-09-27T00:08:41.358Z,96326.00
2018-09-27T00:11:10.700Z,96326.35
2018-09-27T00:13:39.872Z,96321.59
2018-09-27T00:16:09.008Z,96317.80
2018-09-27T00:18:38.351Z,96318.42
2018-09-27T00:21:07.523Z,96321.41
2018-09-27T00:23:36.708Z,96321.42
2018-09-27T00:26:05.921Z,96307.83
2018-09-27T00:28:35.210Z,96314.14
2018-09-27T00:31:04.291Z,96306.05
2018-09-27T00:33:33.288Z,96306.02
2018-09-27T00:36:02.164Z,96302.92
2018-09-27T00:38:31.372Z,96293.02
2018-09-27T00:41:00.648Z,96292.94
2018-09-27T00:43:29.816Z,96291.24
2018-09-27T00:45:59.134Z,96285.55
2018-09-27T00:48:28.390Z,96280.21
2018-09-27T00:50:57.508Z,96273.43
2018-09-27T00:53:26.723Z,96275.53
2018-09-27T00:55:56.047Z,96269.91
2018-09-27T00:58:24.860Z,96267.16
2018-09-27T01:00:53.665Z,96267.45
2018-09-27T01:03:22.528Z,96260.82
2018-09-27T01:05:51.379Z,96258.48
2018-09-27T01:08:20.672Z,96255.80
2018-09-27T01:10:49.884Z,96256.30
2018-09-27T01:13:19.139Z,96254.98
2018-09-27T01:15:48.375Z,96247.81
2018-09-27T01:18:17.659Z,96258.39
2018-09-27T01:20:46.983Z,96254.31
2018-09-27T01:23:16.058Z,96255.20
2018-09-27T01:25:45.219Z,96255.05
2018-09-27T01:28:14.462Z,96251.54
2018-09-27T01:30:43.319Z,96244.27
2018-09-27T01:33:12.200Z,96244.13
2018-09-27T01:35:41.344Z,96245.42
2018-09-27T01:38:10.575Z,96244.61
2018-09-27T01:40:39.880Z,96242.56
2018-09-27T01:43:09.088Z,96245.23
2018-09-27T01:45:38.256Z,96244.56
2018-09-27T01:48:07.453Z,96245.97
2018-09-27T01:50:36.582Z,96247.69
2018-09-27T01:53:05.742Z,96245.72
2018-09-27T01:55:35.007Z,96241.36
2018-09-27T01:58:03.915Z,96240.88
2018-09-27T02:00:32.782Z,96238.63
2018-09-27T02:03:01.701Z,96248.89
2018-09-27T02:05:30.815Z,96242.44
2018-09-27T02:07:59.983Z,96238.35
2018-09-27T02:10:29.175Z,96238.84
2018-09-27T02:12:58.313Z,96241.81
2018-09-27T02:15:27.579Z,96240.27
2018-09-27T02:17:56.924Z,96236.03
2018-09-27T02:20:26.056Z,96237.81
2018-09-27T02:22:55.190Z,96242.50
2018-09-27T02:25:24.117Z,96218.72
2018-09-27T02:27:53.864Z,96227.86
2018-09-27T02:30:22.726Z,96207.70
2018-09-27T02:32:51.527Z,96205.78
2018-09-27T02:35:20.663Z,96208.02
2018-09-27T02:37:49.892Z,96211.76
2018-09-27T02:40:19.148Z,96205.37
2018-09-27T02:42:48.254Z,96195.57
2018-09-27T02:45:17.465Z,96196.86
2018-09-27T02:47:46.873Z,96199.77
2018-09-27T02:50:16.119Z,96204.09
2018-09-27T02:52:45.278Z,96204.36
2018-09-27T02:55:14.813Z,96200.80
2018-09-27T02:57:43.644Z,96198.73
2018-09-27T03:00:12.454Z,96197.39
2018-09-27T03:02:41.280Z,96199.06
2018-09-27T03:05:10.702Z,96192.84
2018-09-27T03:07:39.847Z,96190.76
2018-09-27T03:10:09.071Z,96196.59
2018-09-27T03:12:38.220Z,96196.91
2018-09-27T03:15:07.416Z,96199.23
2018-09-27T03:17:36.658Z,96198.73
2018-09-27T03:20:05.918Z,96200.23
2018-09-27T03:22:35.159Z,96208.40
2018-09-27T03:25:04.150Z,96202.38
2018-09-27T03:27:33.011Z,96202.81
2018-09-27T03:30:01.879Z,96209.52
2018-09-27T03:32:30.774Z,96208.40
2018-09-27T03:34:59.904Z,96206.23
2018-09-27T03:37:28.965Z,96209.64
2018-09-27T03:39:58.083Z,96217.20
2018-09-27T03:42:27.190Z,96208.78
2018-09-27T03:44:56.367Z,96215.08
2018-09-27T03:47:25.413Z,96216.31
2018-09-27T03:49:54.824Z,96212.28
2018-09-27T03:52:24.111Z,96207.73
2018-09-27T03:54:53.343Z,96213.64
2018-09-27T03:57:22.471Z,96206.02
2018-09-27T03:59:51.427Z,96204.58
2018-09-27T04:02:20.222Z,96203.64
2018-09-27T04:04:49.450Z,96206.22
2018-09-27T04:07:18.694Z,96200.94
2018-09-27T04:09:47.996Z,96207.98
2018-09-27T04:12:17.297Z,96212.05
2018-09-27T04:14:46.485Z,96215.12
2018-09-27T04:17:15.680Z,96212.09
2018-09-27T04:19:44.698Z,96208.91
2018-09-27T04:22:13.964Z,96213.72
2018-09-27T04:24:43.009Z,96216.86
2018-09-27T04:27:11.879Z,96209.41
2018-09-27T04:29:40.794Z,96209.25
2018-09-27T04:32:09.641Z,96206.55
2018-09-27T04:34:39.050Z,96210.53
2018-09-27T04:37:08.347Z,96208.72
2018-09-27T04:39:37.591Z,96214.65
2018-09-27T04:42:06.719Z,96213.33
2018-09-27T04:44:35.923Z,96212.91
2018-09-27T04:47:05.129Z,96215.36
2018-09-27T04:49:34.508Z,96216.97
2018-09-27T04:52:03.771Z,96222.73
2018-09-27T04:54:33.034Z,96211.47
2018-09-27T04:57:02.242Z,96214.96
2018-09-27T04:59:31.161Z,96206.34
2018-09-27T05:02:00.340Z,96214.05
2018-09-27T05:04:29.718Z,96211.81
2018-09-27T05:06:58.971Z,96211.14
2018-09-27T05:09:28.199Z,96209.33
2018-09-27T05:11:57.418Z,96207.73
2018-09-27T05:14:26.565Z,96210.83
2018-09-27T05:16:56.005Z,96212.09
2018-09-27T05:19:24.879Z,96206.95
2018-09-27T05:21:54.231Z,96214.73
2018-09-27T05:24:23.376Z,96210.21
2018-09-27T05:26:52.294Z,96201.96
2018-09-27T05:29:21.218Z,96213.66
2018-09-27T05:31:50.092Z,96213.09
2018-09-27T05:34:19.190Z,96205.10
2018-09-27T05:36:48.323Z,96210.14
2018-09-27T05:39:17.608Z,96209.98
2018-09-27T05:41:46.690Z,96205.30
2018-09-27T05:44:15.910Z,96205.48
2018-09-27T05:46:45.098Z,96207.59
2018-09-27T05:49:14.272Z,96215.33
2018-09-27T05:51:43.561Z,96220.83
2018-09-27T05:54:12.764Z,96222.12
2018-09-27T05:56:41.720Z,96227.44
2018-09-27T05:59:10.613Z,96226.00
2018-09-27T06:01:39.492Z,96220.50
2018-09-27T06:04:08.454Z,96225.66
2018-09-27T06:06:37.247Z,96227.55
2018-09-27T06:09:09.678Z,96228.66
2018-09-27T06:11:38.386Z,96222.38
2018-09-27T06:14:07.919Z,96227.81
2018-09-27T06:16:38.027Z,96226.63
2018-09-27T06:19:07.567Z,96225.27
2018-09-27T06:21:36.480Z,96226.03
2018-09-27T06:24:05.552Z,96234.69
2018-09-27T06:26:34.235Z,96225.56
2018-09-27T06:29:02.982Z,96226.53
2018-09-27T06:31:31.743Z,96220.80
2018-09-27T06:34:00.468Z,96222.02
2018-09-27T06:36:29.502Z,96226.96
2018-09-27T06:38:58.541Z,96224.95
2018-09-27T06:41:27.628Z,96234.08
2018-09-27T06:43:56.735Z,96228.97
2018-09-27T06:46:26.188Z,96230.76
2018-09-27T06:48:55.195Z,96224.19
2018-09-27T06:51:24.334Z,96230.08
2018-09-27T06:53:53.468Z,96225.91
2018-09-27T06:56:22.192Z,96224.65
2018-09-27T06:58:50.875Z,96227.43
2018-09-27T07:01:19.812Z,96223.62
2018-09-27T07:03:48.505Z,96221.31
2018-09-27T07:06:17.333Z,96217.84
2018-09-27T07:08:46.458Z,96218.48
2018-09-27T07:11:15.514Z,96214.55
2018-09-27T07:13:44.759Z,96213.73
2018-09-27T07:16:13.619Z,96209.16
2018-09-27T07:18:43.179Z,96206.61
2018-09-27T07:21:12.076Z,96211.38
2018-09-27T07:23:41.230Z,96203.59
2018-09-27T07:26:09.986Z,96201.84
2018-09-27T07:28:38.746Z,96201.62
2018-09-27T07:31:07.720Z,96203.75
2018-09-27T07:33:36.850Z,96200.41
2018-09-27T07:36:06.142Z,96195.37
2018-09-27T07:38:34.917Z,96192.77
2018-09-27T07:41:04.150Z,96196.19
2018-09-27T07:43:33.305Z,96192.98
2018-09-27T07:46:02.885Z,96192.47
2018-09-27T07:48:32.279Z,96192.78
2018-09-27T07:51:01.223Z,96198.90
2018-09-27T07:53:30.119Z,96196.68
2018-09-27T07:55:58.879Z,96185.81
2018-09-27T07:58:27.516Z,96189.91
2018-09-27T08:00:56.279Z,96192.39
2018-09-27T08:03:25.190Z,96182.41
2018-09-27T08:05:54.161Z,96182.72
2018-09-27T08:08:22.994Z,96180.45
2018-09-27T08:10:52.040Z,96171.19
2018-09-27T08:13:20.806Z,96169.60
2018-09-27T08:15:49.643Z,96163.17
2018-09-27T08:18:19.022Z,96162.51
2018-09-27T08:20:47.875Z,96160.80
2018-09-27T08:23:16.643Z,96163.31
2018-09-27T08:25:45.382Z,96169.38
2018-09-27T08:28:14.171Z,96157.93
2018-09-27T08:30:42.924Z,96150.00
2018-09-27T08:33:11.909Z,96158.04
2018-09-27T08:35:41.065Z,96154.79
2018-09-27T08:38:09.959Z,96153.39
2018-09-27T08:40:39.538Z,96152.22
2018-09-27T08:43:08.445Z,96136.63
2018-09-27T08:45:37.444Z,96137.30
2018-09-27T08:48:06.691Z,96140.08
2018-09-27T08:50:35.979Z,96136.92
2018-09-27T08:53:04.943Z,96127.31
2018-09-27T08:55:34.083Z,96126.95
2018-09-27T08:58:03.006Z,96127.46
2018-09-27T09:00:31.658Z,96127.72
2018-09-27T09:03:00.540Z,96124.45
2018-09-27T09:05:29.610Z,96121.31
2018-09-27T09:07:58.586Z,96121.97
2018-09-27T09:10:27.708Z,96121.42
2018-09-27T09:12:56.573Z,96056.02
2018-09-27T09:15:25.922Z,96116.14
2018-09-27T09:17:55.223Z,96105.52
2018-09-27T09:20:23.949Z,96108.27
2018-09-27T09:22:53.160Z,96106.15
2018-09-27T09:25:22.180Z,96096.84
2018-09-27T09:27:50.887Z,96091.58
2018-09-27T09:30:19.957Z,96092.23
2018-09-27T09:32:48.960Z,96085.45
2018-09-27T09:35:18.274Z,96071.11
2018-09-27T09:37:47.125Z,96068.58
2018-09-27T09:40:16.328Z,96068.34
2018-09-27T09:42:45.212Z,96076.84
2018-09-27T09:45:14.294Z,96077.25
2018-09-27T09:47:43.567Z,96070.97
2018-09-27T09:50:12.627Z,96058.84
2018-09-27T09:52:41.707Z,96070.77
2018-09-27T09:55:10.772Z,96058.30
2018-09-27T09:57:39.386Z,96053.83
2018-09-27T10:00:08.434Z,96064.63
2018-09-27T10:02:37.758Z,96042.83
2018-09-27T10:05:06.727Z,96039.43
2018-09-27T10:07:35.858Z,96040.58
2018-09-27T10:10:04.807Z,96054.75
2018-09-27T10:12:33.727Z,96055.12
2018-09-27T10:15:02.672Z,96037.47
2018-09-27T10:17:31.741Z,96044.67
2018-09-27T10:20:00.560Z,96034.62
2018-09-27T10:22:29.358Z,96035.16
2018-09-27T10:24:58.100Z,96029.01
2018-09-27T10:27:26.837Z,96036.11
2018-09-27T10:29:55.718Z,96031.32
2018-09-27T10:32:24.683Z,96036.37
2018-09-27T10:34:53.640Z,96026.45
2018-09-27T10:37:22.531Z,96024.89
2018-09-27T10:39:51.632Z,96016.44
2018-09-27T10:42:20.766Z,96013.80
2018-09-27T10:44:49.731Z,96016.21
2018-09-27T10:47:18.847Z,96002.14
2018-09-27T10:49:47.975Z,96002.39
2018-09-27T10:52:16.911Z,95941.72
2018-09-27T10:54:45.652Z,95991.02
2018-09-27T10:57:14.448Z,95987.03
2018-09-27T10:59:43.587Z,95977.25
2018-09-27T11:02:12.607Z,95978.28
2018-09-27T11:04:41.524Z,95965.26
2018-09-27T11:07:10.460Z,95968.65
2018-09-27T11:09:39.205Z,95962.12
2018-09-27T11:12:08.263Z,95955.06
2018-09-27T11:14:37.079Z,95953.11
2018-09-27T11:17:05.876Z,95950.19
2018-09-27T11:19:34.959Z,95959.09
2018-09-27T11:22:04.023Z,95954.51
2018-09-27T11:24:32.743Z,95946.27
2018-09-27T11:27:01.450Z,95941.49
2018-09-27T11:29:35.245Z,95939.48
2018-09-27T11:32:09.158Z,95948.11
2018-09-27T11:34:38.191Z,95944.73
2018-09-27T11:37:07.054Z,95936.15
2018-09-27T11:39:36.092Z,95918.72
2018-09-27T11:42:05.024Z,95918.52
2018-09-27T11:44:34.115Z,95920.30
2018-09-27T11:47:02.899Z,95909.89
2018-09-27T11:49:31.856Z,95905.47
2018-09-27T11:52:00.712Z,95908.08
2018-09-27T11:54:30.324Z,95903.63
2018-09-27T11:56:59.082Z,95896.05
2018-09-27T11:59:27.911Z,95899.48
2018-09-27T12:01:56.757Z,95895.81
2018-09-27T12:04:25.603Z,95897.66
2018-09-27T12:06:54.528Z,95882.16
2018-09-27T12:09:23.440Z,95885.16
2018-09-27T12:11:52.415Z,95889.00
2018-09-27T12:14:22.218Z,95879.52
2018-09-27T12:16:51.088Z,95884.44
2018-09-27T12:19:19.836Z,95869.56
2018-09-27T12:21:48.609Z,95869.02
2018-09-27T12:24:17.666Z,95865.82
2018-09-27T12:26:46.444Z,95861.34
2018-09-27T12:29:16.099Z,95855.45
2018-09-27T12:31:44.913Z,95857.55
2018-09-27T12:34:13.997Z,95851.16
2018-09-27T12:36:42.871Z,95848.44
2018-09-27T12:39:13.358Z,95848.69
2018-09-27T12:41:42.162Z,95838.83
2018-09-27T12:44:11.100Z,95825.82
2018-09-27T12:46:40.200Z,95830.16
2018-09-27T12:49:09.137Z,95829.02
2018-09-27T12:51:38.318Z,95823.63
2018-09-27T12:54:07.053Z,95812.34
2018-09-27T12:56:35.824Z,95814.23
2018-09-27T12:59:04.811Z,95816.77
2018-09-27T13:01:33.587Z,95808.23
2018-09-27T13:04:02.423Z,95807.09
2018-09-27T13:06:31.338Z,95810.04
2018-09-27T13:09:00.539Z,95796.09
2018-09-27T13:11:29.647Z,95800.55
2018-09-27T13:13:58.579Z,95795.68
2018-09-27T13:16:27.636Z,95790.70
2018-09-27T13:18:57.942Z,95780.91
2018-09-27T13:21:25.722Z,95776.23
2018-09-27T13:23:54.559Z,95783.70
2018-09-27T13:26:23.334Z,95773.52
2018-09-27T13:28:52.512Z,95770.05
2018-09-27T13:31:21.590Z,95773.29
2018-09-27T13:33:50.662Z,95766.13
2018-09-27T13:36:19.675Z,95771.05
2018-09-27T13:38:48.516Z,95759.31
2018-09-27T13:41:17.795Z,95768.69
2018-09-27T13:43:46.924Z,95758.19
2018-09-27T13:46:15.977Z,95760.36
2018-09-27T13:48:44.883Z,95764.61
2018-09-27T13:51:13.681Z,95764.95
2018-09-27T13:53:42.405Z,95765.41
2018-09-27T13:56:11.263Z,95765.41
2018-09-27T13:58:40.114Z,95756.75
2018-09-27T14:01:09.210Z,95760.12
2018-09-27T14:03:38.130Z,95755.03
2018-09-27T14:06:07.318Z,95755.62
2018-09-27T14:08:36.630Z,95751.30
2018-09-27T14:11:05.687Z,95751.40
2018-09-27T14:13:34.562Z,95752.57
2018-09-27T14:16:03.727Z,95752.31
2018-09-27T14:18:33.045Z,95748.66
2018-09-27T14:21:01.692Z,95746.78
2018-09-27T14:23:30.482Z,95753.48
2018-09-27T14:25:59.704Z,95746.02
2018-09-27T14:28:28.878Z,95742.69
2018-09-27T14:30:58.021Z,95738.86
2018-09-27T14:33:27.895Z,95724.20
2018-09-27T14:35:57.759Z,95731.88
2018-09-27T14:38:26.996Z,95737.72
2018-09-27T14:40:56.274Z,95734.83
2018-09-27T14:43:25.316Z,95731.02
2018-09-27T14:45:54.582Z,95731.98
2018-09-27T14:48:23.318Z,95737.76
2018-09-27T14:50:52.267Z,95732.66
2018-09-27T14:53:20.926Z,95737.22
2018-09-27T14:55:49.628Z,95736.71
2018-09-27T14:58:18.962Z,95738.45
2018-09-27T15:00:47.875Z,95736.67
2018-09-27T15:03:16.930Z,95738.05
2018-09-27T15:05:46.141Z,95730.36
2018-09-27T15:08:14.950Z,95730.73
2018-09-27T15:10:43.886Z,95718.56
2018-09-27T15:13:13.231Z,95723.08
2018-09-27T15:15:42.196Z,95728.34
2018-09-27T15:18:11.105Z,95728.22
2018-09-27T15:20:40.002Z,95724.95
2018-09-27T15:23:08.782Z,95728.56
2018-09-27T15:25:37.494Z,95724.50
2018-09-27T15:28:06.774Z,95719.78
2018-09-27T15:30:35.823Z,95720.50
2018-09-27T15:33:04.682Z,95724.59
2018-09-27T15:35:33.926Z,95716.09
2018-09-27T15:38:02.844Z,95722.77
2018-09-27T15:40:31.732Z,95718.95
2018-09-27T15:43:00.760Z,95722.53
2018-09-27T15:45:29.645Z,95717.59
2018-09-27T15:47:58.820Z,95719.80
2018-09-27T15:50:27.785Z,95717.61
2018-09-27T15:52:56.446Z,95720.25
2018-09-27T15:55:25.217Z,95709.80
2018-09-27T15:57:54.296Z,95714.48
2018-09-27T16:00:23.303Z,95710.78
2018-09-27T16:02:52.238Z,95715.84
2018-09-27T16:05:21.614Z,95723.67
2018-09-27T16:07:50.466Z,95726.95
2018-09-27T16:10:19.563Z,95730.75
2018-09-27T16:12:48.574Z,95730.48
2018-09-27T16:15:17.292Z,95731.37
2018-09-27T16:17:46.432Z,95733.41
2018-09-27T16:20:15.762Z,95721.09
2018-09-27T16:22:44.366Z,95722.48
2018-09-27T16:25:13.081Z,95725.89
2018-09-27T16:27:42.131Z,95728.13
2018-09-27T16:30:11.260Z,95730.36
2018-09-27T16:32:40.199Z,95733.95
2018-09-27T16:35:09.446Z,95727.28
2018-09-27T16:37:38.293Z,95725.97
2018-09-27T16:40:07.373Z,95730.34
2018-09-27T16:42:36.523Z,95726.75
2018-09-27T16:45:05.830Z,95732.72
2018-09-27T16:47:34.795Z,95724.92
2018-09-27T16:50:03.711Z,95726.83
2018-09-27T16:52:32.363Z,95725.73
2018-09-27T16:55:01.150Z,95727.59
2018-09-27T16:57:30.147Z,95729.16
2018-09-27T16:59:59.226Z,95724.50
2018-09-27T17:02:28.306Z,95656.59
2018-09-27T17:04:57.304Z,95724.05
2018-09-27T17:07:26.494Z,95725.25
2018-09-27T17:09:55.570Z,95723.56
2018-09-27T17:12:24.673Z,95722.95
2018-09-27T17:14:53.712Z,95727.03
2018-09-27T17:17:22.475Z,95733.08
2018-09-27T17:19:51.194Z,95732.25
2018-09-27T17:22:19.941Z,95733.45
2018-09-27T17:24:48.546Z,95739.42
2018-09-27T17:27:17.592Z,95745.82
2018-09-27T17:29:46.859Z,95742.05
2018-09-27T17:32:16.031Z,95745.81
2018-09-27T17:34:45.299Z,95747.87
2018-09-27T17:37:14.342Z,95749.84
2018-09-27T17:39:43.335Z,95742.52
2018-09-27T17:42:12.225Z,95739.56
2018-09-27T17:44:41.652Z,95744.80
2018-09-27T17:47:10.515Z,95754.30
2018-09-27T17:49:39.440Z,95756.80
2018-09-27T17:52:08.487Z,95753.55
2018-09-27T17:54:37.346Z,95755.15
2018-09-27T17:57:06.367Z,95752.11
2018-09-27T17:59:35.408Z,95750.47
2018-09-27T18:02:04.608Z,95757.20
2018-09-27T18:04:33.597Z,95750.38
2018-09-27T18:07:02.899Z,95759.60
2018-09-27T18:09:31.793Z,95754.84
2018-09-27T18:12:00.818Z,95750.16
2018-09-27T18:14:29.991Z,95752.62
2018-09-27T18:16:58.957Z,95750.72
2018-09-27T18:19:27.728Z,95753.65
2018-09-27T18:21:56.380Z,95751.32
2018-09-27T18:24:25.052Z,95749.48
2018-09-27T18:26:53.970Z,95754.38
2018-09-27T18:29:23.031Z,95753.70
2018-09-27T18:31:51.986Z,95681.38
2018-09-27T18:34:20.642Z,95748.20
2018-09-27T18:36:49.694Z,95758.82
2018-09-27T18:39:18.845Z,95759.39
2018-09-27T18:41:47.753Z,95759.98
2018-09-27T18:44:17.005Z,95756.09
2018-09-27T18:46:45.668Z,95765.89
2018-09-27T18:49:14.754Z,95772.52
2018-09-27T18:51:43.726Z,95769.69
2018-09-27T18:54:12.382Z,95767.82
2018-09-27T18:56:41.235Z,95761.81
2018-09-27T18:59:10.135Z,95766.41
2018-09-27T19:01:39.204Z,95766.30
2018-09-27T19:04:08.115Z,95767.77
2018-09-27T19:06:37.415Z,95764.38
2018-09-27T19:09:07.284Z,95760.20
2018-09-27T19:11:36.282Z,95766.02
2018-09-27T19:14:05.595Z,95764.69
2018-09-27T19:16:34.343Z,95758.08
2018-09-27T19:19:03.047Z,95758.45
2018-09-27T19:21:31.946Z,95759.84
2018-09-27T19:24:00.687Z,95759.75
2018-09-27T19:26:29.616Z,95760.12
2018-09-27T19:28:58.901Z,95761.33
2018-09-27T19:31:28.023Z,95760.00
2018-09-27T19:33:56.847Z,95766.06
2018-09-27T19:36:25.787Z,95757.73
2018-09-27T19:38:54.545Z,95764.20
2018-09-27T19:41:23.335Z,95760.00
2018-09-27T19:43:52.583Z,95763.74
2018-09-27T19:46:21.647Z,95764.88
2018-09-27T19:48:50.626Z,95760.71
2018-09-27T19:51:19.534Z,95748.39
2018-09-27T19:53:48.400Z,95749.19
2018-09-27T19:56:17.204Z,95751.94
2018-09-27T19:58:46.279Z,95753.98
2018-09-27T20:01:15.141Z,95758.85
2018-09-27T20:03:44.059Z,95748.75
2018-09-27T20:06:13.282Z,95749.30
2018-09-27T20:08:42.224Z,95747.31
2018-09-27T20:11:11.260Z,95744.85
2018-09-27T20:13:40.279Z,95741.86
2018-09-27T20:16:09.438Z,95736.26
2018-09-27T20:18:38.157Z,95735.77
2018-09-27T20:21:06.802Z,95738.07
2018-09-27T20:23:35.427Z,95732.13
2018-09-27T20:26:04.342Z,95738.50
2018-09-27T20:28:33.748Z,95735.50
2018-09-27T20:31:02.473Z,95742.91
2018-09-27T20:33:31.180Z,95746.03
2018-09-27T20:35:59.998Z,95741.18
2018-09-27T20:38:28.759Z,95733.41
2018-09-27T20:40:57.453Z,95728.64
2018-09-27T20:43:27.155Z,95727.31
2018-09-27T20:45:55.946Z,95729.28
2018-09-27T20:48:24.643Z,95726.85
2018-09-27T20:50:53.558Z,95732.72
2018-09-27T20:53:22.610Z,95730.84
2018-09-27T20:55:51.486Z,95731.02
2018-09-27T20:58:20.531Z,95723.67
2018-09-27T21:00:49.392Z,95726.81
2018-09-27T21:03:18.167Z,95728.96
2018-09-27T21:05:47.010Z,95729.34
2018-09-27T21:08:15.958Z,95724.20
2018-09-27T21:10:44.860Z,95732.94
2018-09-27T21:13:14.169Z,95732.37
2018-09-27T21:15:42.946Z,95727.19
2018-09-27T21:18:11.638Z,95731.31
2018-09-27T21:20:40.328Z,95726.53
2018-09-27T21:23:09.195Z,95733.98
2018-09-27T21:25:37.947Z,95741.30
2018-09-27T21:28:07.328Z,95733.27
2018-09-27T21:30:36.475Z,95739.98
2018-09-27T21:33:05.339Z,95739.64
2018-09-27T21:35:34.359Z,95737.62
2018-09-27T21:38:03.439Z,95738.66
2018-09-27T21:40:32.279Z,95736.27
2018-09-27T21:43:01.284Z,95747.74
2018-09-27T21:45:30.238Z,95749.84
2018-09-27T21:47:58.917Z,95748.78
2018-09-27T21:50:27.811Z,95746.64
2018-09-27T21:52:56.410Z,95741.43
2018-09-27T21:55:25.166Z,95742.23
2018-09-27T21:57:54.121Z,95741.19
2018-09-27T22:00:22.876Z,95746.69
2018-09-27T22:02:51.527Z,95744.81
2018-09-27T22:05:20.600Z,95739.86
2018-09-27T22:07:49.354Z,95742.11
2018-09-27T22:10:17.995Z,95738.91
2018-09-27T22:12:47.015Z,95736.02
2018-09-27T22:15:15.828Z,95734.33
2018-09-27T22:17:44.398Z,95737.41
2018-09-27T22:20:13.256Z,95737.66
2018-09-27T22:22:41.847Z,95746.06
2018-09-27T22:25:10.637Z,95743.28
2018-09-27T22:27:39.588Z,95740.40
2018-09-27T22:30:08.769Z,95739.23
2018-09-27T22:32:37.554Z,95737.98
2018-09-27T22:35:06.580Z,95731.64
2018-09-27T22:37:35.363Z,95727.73
2018-09-27T22:40:04.140Z,95730.18
2018-09-27T22:42:33.058Z,95730.95
2018-09-27T22:45:01.924Z,95726.76
2018-09-27T22:47:30.507Z,95733.14
2018-09-27T22:49:59.282Z,95729.66
2018-09-27T22:52:27.843Z,95727.83
2018-09-27T22:54:56.660Z,95724.73
2018-09-27T22:57:25.368Z,95718.51
2018-09-27T22:59:54.088Z,95721.23
2018-09-27T23:02:22.831Z,95725.34
2018-09-27T23:04:51.610Z,95719.77
2018-09-27T23:07:20.366Z,95717.55
2018-09-27T23:09:49.097Z,95708.50
2018-09-27T23:12:17.959Z,95704.92
2018-09-27T23:14:46.782Z,95700.12
2018-09-27T23:17:15.972Z,95704.71
2018-09-27T23:19:44.847Z,95700.83
2018-09-27T23:22:13.482Z,95697.61
2018-09-27T23:24:42.394Z,95699.61
2018-09-27T23:27:11.371Z,95698.13
2018-09-27T23:29:40.503Z,95694.86
2018-09-27T23:32:09.330Z,95693.52
2018-09-27T23:34:38.451Z,95691.02
2018-09-27T23:37:07.929Z,95685.76
2018-09-27T23:39:36.760Z,95683.24
2018-09-27T23:42:05.931Z,95682.66
2018-09-27T23:44:34.719Z,95678.22
2018-09-27T23:47:03.596Z,95675.59
2018-09-27T23:49:32.594Z,95680.56
2018-09-27T23:52:01.261Z,95672.27
2018-09-27T23:54:30.181Z,95663.79
2018-09-27T23:56:59.250Z,95664.17
2018-09-27T23:59:28.107Z,95666.09
